Time;durP1;ratioP1;P1;durP2;ratioP2;P2;SDS_P1;SDS_P2;PMS_P1;PMS_P2;Temp;Humidity;BMP_temperature;BMP_pressure;BME280_temperature;BME280_humidity;BME280_pressure;Samples;Min_cycle;Max_cycle;Signal;HPM_P1;HPM_P2
2022/11/29 00:00:46;;;;;;;238.82;66.15;;;6.00;99.90;;;;;;5001755;28;20050;-68
2022/11/29 00:03:13;;;;;;;288.90;65.82;;;6.10;99.90;;;;;;4999994;28;20045;-68
2022/11/29 00:05:40;;;;;;;239.65;62.10;;;6.20;99.90;;;;;;4995533;28;20104;-68
2022/11/29 00:08:07;;;;;;;241.23;64.85;;;6.30;99.90;;;;;;4999985;28;20034;-68
2022/11/29 00:10:37;;;;;;;263.63;65.85;;;6.20;99.90;;;;;;4997058;28;20068;-68
2022/11/29 00:13:04;;;;;;;244.45;61.45;;;6.10;99.90;;;;;;4998720;28;20539;-68
2022/11/29 00:15:35;;;;;;;258.38;63.65;;;6.20;99.90;;;;;;4996020;28;20041;-70
2022/11/29 00:18:02;;;;;;;234.13;60.70;;;6.20;99.90;;;;;;5007355;28;20396;-68
2022/11/29 00:20:29;;;;;;;242.88;58.85;;;6.20;99.90;;;;;;4999294;28;20107;-68
2022/11/29 00:22:55;;;;;;;235.73;60.88;;;6.20;99.90;;;;;;5007005;28;20034;-68
2022/11/29 00:25:22;;;;;;;200.77;55.38;;;6.20;99.90;;;;;;4997698;28;20046;-68
2022/11/29 00:27:50;;;;;;;190.73;56.42;;;6.20;99.90;;;;;;4998466;28;20420;-70
2022/11/29 00:30:18;;;;;;;185.57;56.67;;;6.30;99.90;;;;;;4997263;28;20694;-69
2022/11/29 00:32:45;;;;;;;252.77;62.20;;;6.30;99.90;;;;;;4996590;28;20038;-68
2022/11/29 00:35:11;;;;;;;296.17;66.40;;;6.40;99.90;;;;;;4998495;28;20046;-69
2022/11/29 00:37:38;;;;;;;232.50;60.92;;;6.40;99.90;;;;;;4996276;28;20038;-68
2022/11/29 00:40:05;;;;;;;257.60;60.83;;;6.40;99.90;;;;;;5006195;28;20050;-69
2022/11/29 00:42:32;;;;;;;298.42;65.20;;;6.40;99.90;;;;;;4995848;28;20038;-70
2022/11/29 00:44:59;;;;;;;254.52;59.30;;;6.20;99.90;;;;;;4998556;28;20038;-68
2022/11/29 00:47:25;;;;;;;249.73;60.70;;;6.20;99.90;;;;;;4998803;28;20048;-70
2022/11/29 00:49:52;;;;;;;218.93;54.38;;;6.10;99.90;;;;;;4994433;28;20053;-68
2022/11/29 00:52:19;;;;;;;243.13;58.95;;;6.20;99.90;;;;;;4996884;28;20046;-70
2022/11/29 00:54:45;;;;;;;216.98;57.13;;;6.10;99.90;;;;;;4996735;28;20366;-71
2022/11/29 00:57:12;;;;;;;235.43;56.92;;;6.10;99.90;;;;;;5002666;28;20199;-70
2022/11/29 00:59:39;;;;;;;206.60;55.95;;;6.10;99.90;;;;;;4997549;28;20092;-70
2022/11/29 01:02:05;;;;;;;200.85;52.40;;;6.10;99.90;;;;;;4997552;28;20038;-69
2022/11/29 01:04:32;;;;;;;268.55;58.13;;;6.10;99.90;;;;;;4997075;28;20385;-70
2022/11/29 01:06:59;;;;;;;233.25;53.80;;;6.20;99.90;;;;;;4997112;28;20034;-70
2022/11/29 01:09:25;;;;;;;249.07;57.17;;;6.10;99.90;;;;;;4997669;28;20049;-70
2022/11/29 01:11:52;;;;;;;239.13;56.60;;;6.10;99.90;;;;;;4991803;28;20037;-70
2022/11/29 01:14:19;;;;;;;265.02;58.38;;;6.00;99.90;;;;;;5002146;28;20045;-70
2022/11/29 01:16:45;;;;;;;293.63;60.03;;;6.00;99.90;;;;;;4995605;28;20046;-70
2022/11/29 01:19:12;;;;;;;240.32;53.70;;;6.00;99.90;;;;;;5007594;28;20455;-70
2022/11/29 01:21:40;;;;;;;266.50;57.55;;;6.10;99.90;;;;;;4999290;28;20526;-69
2022/11/29 01:24:06;;;;;;;250.68;56.55;;;6.20;99.90;;;;;;4974726;28;20052;-70
2022/11/29 01:26:33;;;;;;;266.77;57.92;;;6.20;99.90;;;;;;4989703;28;20045;-70
2022/11/29 01:28:59;;;;;;;276.38;59.20;;;6.20;99.90;;;;;;5002071;28;20034;-69
2022/11/29 01:31:34;;;;;;;238.73;56.22;;;6.30;99.90;;;;;;4994723;28;20050;-69
2022/11/29 01:34:02;;;;;;;;;;;6.30;99.90;;;;;;4990855;28;20571;-70
2022/11/29 01:36:29;;;;;;;301.48;60.88;;;6.30;99.90;;;;;;4993431;28;19928;-70
2022/11/29 01:38:59;;;;;;;336.40;62.15;;;6.20;99.90;;;;;;4997957;28;20044;-70
2022/11/29 01:41:29;;;;;;;411.50;68.93;;;6.30;99.90;;;;;;5000502;28;20053;-70
2022/11/29 01:44:02;;;;;;;332.75;62.25;;;6.30;99.90;;;;;;4995423;28;20125;-70
2022/11/29 01:46:32;;;;;;;316.17;60.60;;;6.30;99.90;;;;;;4999396;28;20033;-70
2022/11/29 01:49:17;;;;;;;263.67;56.35;;;6.30;99.90;;;;;;5007483;28;20042;-69
2022/11/29 01:52:13;;;;;;;186.35;50.08;;;6.40;99.90;;;;;;4983933;28;20321;-70
2022/11/29 01:54:46;;;;;;;336.40;62.22;;;6.40;99.90;;;;;;4987471;28;20056;-70
2022/11/29 01:57:14;;;;;;;342.77;61.35;;;6.40;99.90;;;;;;4992020;28;20133;-70
2022/11/29 01:59:45;;;;;;;347.58;62.08;;;6.30;99.90;;;;;;4999419;28;20054;-69
2022/11/29 02:02:29;;;;;;;296.45;59.05;;;6.40;99.90;;;;;;5001269;28;20050;-68
2022/11/29 02:04:58;;;;;;;315.67;57.13;;;6.30;99.90;;;;;;4999420;28;20500;-68
2022/11/29 02:07:25;;;;;;;375.83;59.35;;;6.30;99.90;;;;;;4982841;28;20064;-69
2022/11/29 02:09:51;;;;;;;408.05;65.20;;;6.20;99.90;;;;;;4997400;28;20050;-69
2022/11/29 02:12:18;;;;;;;375.73;58.53;;;6.20;99.90;;;;;;5000285;28;20046;-69
2022/11/29 02:15:05;;;;;;;367.23;59.38;;;6.20;99.90;;;;;;5000070;28;20038;-69
2022/11/29 02:17:54;;;;;;;411.20;62.45;;;6.20;99.90;;;;;;4987719;28;20543;-69
2022/11/29 02:20:42;;;;;;;389.98;58.60;;;6.20;99.90;;;;;;4993329;28;20136;-69
2022/11/29 02:23:24;;;;;;;438.17;63.33;;;6.20;99.90;;;;;;4989994;28;20045;-68
2022/11/29 02:26:22;;;;;;;380.23;59.45;;;6.10;99.90;;;;;;4996308;28;20034;-68
2022/11/29 02:29:07;;;;;;;418.27;60.00;;;6.20;99.90;;;;;;4980040;28;20033;-69
2022/11/29 02:32:05;;;;;;;492.50;68.32;;;6.30;99.90;;;;;;4994637;28;20053;-69
2022/11/29 02:34:51;;;;;;;285.95;51.45;;;6.30;99.90;;;;;;4993069;28;20308;-69
2022/11/29 02:37:23;;;;;;;;;;;6.30;99.90;;;;;;4980678;28;20041;-69
2022/11/29 02:40:05;;;;;;;448.23;62.38;;;6.40;99.90;;;;;;4983893;28;20119;-69
2022/11/29 02:42:57;;;;;;;302.30;53.38;;;6.40;99.90;;;;;;5002138;28;20045;-69
2022/11/29 02:45:57;;;;;;;468.27;64.80;;;6.40;99.90;;;;;;5001382;28;20038;-69
2022/11/29 02:48:49;;;;;;;308.98;56.47;;;6.40;99.90;;;;;;4990023;28;20038;-69
2022/11/29 02:51:40;;;;;;;304.13;52.35;;;6.40;99.90;;;;;;4995790;28;20063;-69
2022/11/29 02:54:22;;;;;;;401.50;58.35;;;6.30;99.90;;;;;;4995797;28;20049;-68
2022/11/29 02:57:18;;;;;;;427.27;62.85;;;6.30;99.90;;;;;;5020283;23;20050;-69
2022/11/29 02:59:49;;;;;;;437.95;64.07;;;6.30;99.90;;;;;;4982321;28;20293;-71
2022/11/29 03:02:49;;;;;;;413.30;58.50;;;6.40;99.90;;;;;;4981348;28;20038;-70
2022/11/29 03:05:35;;;;;;;414.90;58.72;;;6.30;99.90;;;;;;4989028;28;20042;-71
2022/11/29 03:08:35;;;;;;;383.65;60.15;;;6.30;99.90;;;;;;4972638;28;20050;-70
2022/11/29 03:11:19;;;;;;;419.50;58.88;;;6.40;99.90;;;;;;4973250;28;20039;-71
2022/11/29 03:14:04;;;;;;;583.67;78.15;;;6.40;99.90;;;;;;4956960;28;20491;-70
2022/11/29 03:16:42;;;;;;;522.30;71.75;;;6.40;99.90;;;;;;4954487;28;20042;-70
2022/11/29 03:19:34;;;;;;;446.00;64.82;;;6.40;99.90;;;;;;4973047;28;20106;-71
2022/11/29 03:22:10;;;;;;;408.80;62.45;;;6.40;99.90;;;;;;4966572;28;20042;-71
2022/11/29 03:24:53;;;;;;;538.72;72.68;;;6.40;99.90;;;;;;4974480;28;20548;-71
2022/11/29 03:27:27;;;;;;;535.85;74.22;;;6.50;99.90;;;;;;4975834;28;20041;-70
2022/11/29 03:30:00;;;;;;;504.48;69.10;;;6.60;99.90;;;;;;4956325;28;20470;-70
2022/11/29 03:32:29;;;;;;;390.30;61.38;;;6.50;99.90;;;;;;4955278;28;20062;-70
2022/11/29 03:35:19;;;;;;;485.80;68.78;;;6.40;99.90;;;;;;4972954;28;20049;-71
2022/11/29 03:38:03;;;;;;;434.20;62.67;;;6.30;99.90;;;;;;4972994;28;20500;-71
2022/11/29 03:40:48;;;;;;;504.60;65.65;;;6.30;99.90;;;;;;4950210;28;20052;-69
2022/11/29 03:43:25;;;;;;;421.63;59.00;;;6.30;99.90;;;;;;4973343;28;20035;-71
2022/11/29 03:46:09;;;;;;;502.38;67.55;;;6.40;99.90;;;;;;4971637;28;20034;-69
2022/11/29 03:49:09;;;;;;;402.88;61.92;;;6.30;99.90;;;;;;4956908;28;20054;-70
2022/11/29 03:51:55;;;;;;;371.83;57.78;;;6.30;99.90;;;;;;4969636;28;20500;-71
2022/11/29 03:54:25;;;;;;;;;;;6.30;99.90;;;;;;4971964;28;20464;-71
2022/11/29 03:56:52;;;;;;;405.17;61.58;;;6.40;99.90;;;;;;4961679;28;19921;-71
2022/11/29 03:59:31;;;;;;;370.80;59.60;;;6.40;99.90;;;;;;4946544;28;20062;-71
2022/11/29 04:02:18;;;;;;;370.80;57.58;;;6.40;99.90;;;;;;4957835;28;20034;-71
2022/11/29 04:05:10;;;;;;;412.25;62.20;;;6.50;99.90;;;;;;4972113;28;20125;-72
2022/11/29 04:07:49;;;;;;;515.60;71.72;;;6.50;99.90;;;;;;4955532;28;20077;-73
2022/11/29 04:10:38;;;;;;;404.42;82.03;;;6.60;99.90;;;;;;4945740;28;20046;-72
2022/11/29 04:13:39;;;;;;;335.13;55.78;;;6.60;99.90;;;;;;4954937;28;20050;-70
2022/11/29 04:16:25;;;;;;;243.57;46.50;;;6.60;99.90;;;;;;4969118;28;20404;-70
2022/11/29 04:18:58;;;;;;;;;;;6.60;99.90;;;;;;4961583;28;20046;-71
2022/11/29 04:21:39;;;;;;;387.20;59.20;;;6.60;99.90;;;;;;4975134;28;20009;-71
2022/11/29 04:24:45;;;;;;;334.05;56.75;;;6.50;99.90;;;;;;4951161;28;20057;-69
2022/11/29 04:27:44;;;;;;;382.38;56.50;;;6.40;99.90;;;;;;4958327;28;20134;-69
2022/11/29 04:30:57;;;;;;;382.75;56.42;;;6.40;99.90;;;;;;4958458;28;20408;-71
2022/11/29 04:33:36;;;;;;;402.58;60.63;;;6.30;99.90;;;;;;4955270;28;20053;-70
2022/11/29 04:36:24;;;;;;;334.55;52.53;;;6.30;99.90;;;;;;4961141;28;20057;-71
2022/11/29 04:39:18;;;;;;;267.55;52.55;;;6.20;99.90;;;;;;4960881;28;20057;-72
2022/11/29 04:42:25;;;;;;;251.30;46.90;;;6.20;99.90;;;;;;4971112;28;20043;-71
2022/11/29 04:45:19;;;;;;;229.45;46.60;;;6.40;99.90;;;;;;4973439;28;20045;-71
2022/11/29 04:48:01;;;;;;;233.05;46.67;;;6.50;99.90;;;;;;4955431;28;20384;-72
2022/11/29 04:50:45;;;;;;;274.70;50.78;;;6.40;99.90;;;;;;4955073;28;20046;-70
2022/11/29 04:53:56;;;;;;;224.23;49.13;;;6.40;99.90;;;;;;4970057;28;20046;-71
2022/11/29 04:56:52;;;;;;;186.10;43.45;;;6.30;99.90;;;;;;4932767;28;20141;-71
2022/11/29 04:59:35;;;;;;;208.90;43.28;;;6.30;99.90;;;;;;4967395;28;20130;-70
2022/11/29 05:02:04;;;;;;;198.57;47.15;;;6.40;99.90;;;;;;4974740;28;20046;-70
2022/11/29 05:04:31;;;;;;;238.57;49.03;;;6.40;99.90;;;;;;4953460;28;20145;-71
2022/11/29 05:07:04;;;;;;;239.50;50.30;;;6.40;99.90;;;;;;4958160;28;20034;-72
2022/11/29 05:09:31;;;;;;;280.33;51.28;;;6.50;99.90;;;;;;4959002;28;20038;-70
2022/11/29 05:12:09;;;;;;;261.25;49.70;;;6.50;99.90;;;;;;4977725;28;20516;-74
2022/11/29 05:14:53;;;;;;;278.80;53.20;;;6.60;99.90;;;;;;4972099;28;20914;-70
2022/11/29 05:17:54;;;;;;;249.50;51.33;;;6.60;99.90;;;;;;4973659;28;20140;-71
2022/11/29 05:20:34;;;;;;;266.63;50.38;;;6.60;99.90;;;;;;4973036;28;20070;-71
2022/11/29 05:23:09;;;;;;;338.27;56.58;;;6.60;99.90;;;;;;4975219;28;20072;-72
2022/11/29 05:25:49;;;;;;;382.00;62.08;;;6.60;99.90;;;;;;4973518;28;20046;-70
2022/11/29 05:28:27;;;;;;;434.27;68.75;;;6.60;99.90;;;;;;4973994;28;20525;-68
2022/11/29 05:31:07;;;;;;;373.38;63.33;;;6.50;99.90;;;;;;4948116;28;20158;-71
2022/11/29 05:33:53;;;;;;;449.02;69.30;;;6.40;99.90;;;;;;4971177;28;20473;-71
2022/11/29 05:36:40;;;;;;;447.52;73.00;;;6.50;99.90;;;;;;4953664;28;20038;-71
2022/11/29 05:39:16;;;;;;;566.90;85.47;;;6.60;99.90;;;;;;4975021;28;20046;-70
2022/11/29 05:42:31;;;;;;;487.95;82.43;;;6.60;99.90;;;;;;4956132;28;20046;-70
2022/11/29 05:45:06;;;;;;;524.40;78.28;;;6.60;99.90;;;;;;4963576;28;20042;-70
2022/11/29 05:47:43;;;;;;;541.80;85.32;;;6.50;99.90;;;;;;4973341;28;20541;-70
2022/11/29 05:50:20;;;;;;;579.22;90.07;;;6.50;99.90;;;;;;4974554;28;20070;-70
2022/11/29 05:53:13;;;;;;;570.55;87.90;;;6.50;99.90;;;;;;4973302;28;20046;-70
2022/11/29 05:56:03;;;;;;;478.52;65.18;;;6.40;99.90;;;;;;4954905;28;20073;-70
2022/11/29 05:58:30;;;;;;;341.35;63.58;;;6.40;99.90;;;;;;4971682;28;20050;-71
2022/11/29 06:01:31;;;;;;;309.40;55.45;;;6.40;99.90;;;;;;4955826;28;20567;-73
2022/11/29 06:04:04;;;;;;;356.98;58.05;;;6.40;99.90;;;;;;4972213;28;20046;-71
2022/11/29 06:06:46;;;;;;;397.10;63.13;;;6.50;99.90;;;;;;4970796;28;20122;-70
2022/11/29 06:09:26;;;;;;;336.08;56.67;;;6.50;99.90;;;;;;4972318;28;20043;-70
2022/11/29 06:12:04;;;;;;;375.02;62.80;;;6.60;99.90;;;;;;4939031;28;20042;-70
2022/11/29 06:15:03;;;;;;;414.70;65.22;;;6.70;99.90;;;;;;4952777;28;20045;-70
2022/11/29 06:17:54;;;;;;;504.77;68.38;;;6.70;99.90;;;;;;4950706;28;20043;-70
2022/11/29 06:20:37;;;;;;;451.73;65.70;;;6.70;99.90;;;;;;4953059;28;20412;-72
2022/11/29 06:23:14;;;;;;;352.10;59.25;;;6.70;99.90;;;;;;4966398;28;20066;-73
2022/11/29 06:25:58;;;;;;;409.35;60.55;;;6.70;99.90;;;;;;4922148;28;20409;-70
2022/11/29 06:28:35;;;;;;;266.55;50.95;;;6.70;99.90;;;;;;4947638;28;20074;-71
2022/11/29 06:31:15;;;;;;;393.85;61.45;;;6.60;99.90;;;;;;4937637;28;20041;-69
2022/11/29 06:33:59;;;;;;;320.88;53.72;;;6.50;99.90;;;;;;4956479;28;20419;-71
2022/11/29 06:36:30;;;;;;;267.77;48.92;;;6.50;99.90;;;;;;4950498;28;20436;-71
2022/11/29 06:38:57;;;;;;;264.58;54.28;;;6.50;99.90;;;;;;4959298;28;20046;-71
2022/11/29 06:41:24;;;;;;;334.95;57.05;;;6.60;99.90;;;;;;4956005;28;20046;-69
2022/11/29 06:43:51;;;;;;;307.10;52.03;;;6.60;99.90;;;;;;4957216;28;20468;-71
2022/11/29 06:46:54;;;;;;;346.75;58.28;;;6.70;99.90;;;;;;4953057;28;20043;-69
2022/11/29 06:49:46;;;;;;;267.35;51.63;;;6.80;99.90;;;;;;4936281;28;20074;-70
2022/11/29 06:52:24;;;;;;;393.27;61.65;;;6.60;99.90;;;;;;4971658;28;20057;-70
2022/11/29 06:55:18;;;;;;;467.73;63.55;;;6.70;99.90;;;;;;4958856;28;20045;-69
2022/11/29 06:58:00;;;;;;;490.92;61.25;;;6.70;99.90;;;;;;4984385;28;20062;-69
2022/11/29 07:00:48;;;;;;;438.58;61.13;;;6.80;99.90;;;;;;4980163;28;20042;-70
2022/11/29 07:03:34;;;;;;;465.17;74.60;;;6.80;99.90;;;;;;4969701;28;20043;-70
2022/11/29 07:06:28;;;;;;;499.45;81.60;;;6.80;99.90;;;;;;4958065;28;20039;-69
2022/11/29 07:09:01;;;;;;;512.30;81.72;;;6.70;99.90;;;;;;4960387;28;20053;-70
2022/11/29 07:11:28;;;;;;;430.13;76.18;;;6.70;99.90;;;;;;4970059;28;20043;-68
2022/11/29 07:13:55;;;;;;;465.48;73.30;;;6.80;99.90;;;;;;4961404;28;20050;-69
2022/11/29 07:16:30;;;;;;;346.35;60.88;;;6.80;99.90;;;;;;4967998;28;20039;-71
2022/11/29 07:19:19;;;;;;;415.55;62.55;;;6.90;99.90;;;;;;4961422;28;20074;-69
2022/11/29 07:21:56;;;;;;;311.80;48.65;;;6.80;99.90;;;;;;4964328;28;20039;-70
2022/11/29 07:24:37;;;;;;;369.85;52.45;;;6.80;99.90;;;;;;4972409;28;20122;-70
2022/11/29 07:27:23;;;;;;;310.63;47.22;;;6.70;99.90;;;;;;4954560;28;20126;-70
2022/11/29 07:30:00;;;;;;;375.75;55.15;;;6.70;99.90;;;;;;4958317;28;20042;-69
2022/11/29 07:32:39;;;;;;;358.02;51.67;;;6.70;99.90;;;;;;4955466;28;20686;-70
2022/11/29 07:35:11;;;;;;;474.85;61.03;;;6.70;99.90;;;;;;4976660;28;20042;-71
2022/11/29 07:38:11;;;;;;;536.28;62.58;;;6.70;99.90;;;;;;4978876;28;20058;-74
2022/11/29 07:40:57;;;;;;;433.83;57.00;;;6.90;99.90;;;;;;4974178;28;20758;-75
2022/11/29 07:43:40;;;;;;;390.02;61.03;;;6.90;99.90;;;;;;4970517;28;20498;-73
2022/11/29 07:46:06;;;;;;;439.65;60.55;;;6.90;99.90;;;;;;4978371;28;20062;-74
2022/11/29 07:48:33;;;;;;;434.05;56.10;;;6.90;99.90;;;;;;4957687;28;20043;-74
2022/11/29 07:51:00;;;;;;;368.52;53.08;;;6.90;99.90;;;;;;4963175;28;20531;-75
2022/11/29 07:53:29;;;;;;;545.75;72.63;;;6.90;99.90;;;;;;4944291;28;20515;-74
2022/11/29 07:55:57;;;;;;;579.13;79.57;;;6.90;99.90;;;;;;4970285;28;20038;-74
2022/11/29 07:58:23;;;;;;;542.70;83.18;;;6.90;99.90;;;;;;4961568;28;20400;-75
2022/11/29 08:00:50;;;;;;;430.70;55.40;;;6.90;99.90;;;;;;4961176;28;20518;-77
2022/11/29 08:03:17;;;;;;;589.35;78.82;;;6.80;99.90;;;;;;4979996;28;20340;-74
2022/11/29 08:05:46;;;;;;;587.00;79.85;;;6.80;99.90;;;;;;4956956;28;20350;-75
2022/11/29 08:08:14;;;;;;;513.75;63.88;;;6.80;99.90;;;;;;4952294;28;20134;-74
2022/11/29 08:10:40;;;;;;;483.42;62.20;;;6.90;99.90;;;;;;4968431;28;20039;-74
2022/11/29 08:13:07;;;;;;;487.30;62.92;;;6.90;99.90;;;;;;4956007;28;20049;-74
2022/11/29 08:15:34;;;;;;;405.00;55.50;;;6.90;99.90;;;;;;4939288;28;20577;-74
2022/11/29 08:18:01;;;;;;;466.05;59.35;;;6.90;99.90;;;;;;4976919;28;20505;-74
2022/11/29 08:20:28;;;;;;;374.48;52.63;;;6.90;99.90;;;;;;4945556;28;20043;-68
2022/11/29 08:22:58;;;;;;;498.58;58.63;;;7.00;99.90;;;;;;4943766;28;20621;-67
2022/11/29 08:25:26;;;;;;;402.17;54.85;;;7.00;99.90;;;;;;4974365;28;20066;-67
2022/11/29 08:27:54;;;;;;;462.02;58.40;;;7.10;99.90;;;;;;4954151;28;20038;-67
2022/11/29 08:30:21;;;;;;;475.02;60.10;;;7.10;99.90;;;;;;4963105;28;20046;-67
2022/11/29 08:32:49;;;;;;;458.52;59.75;;;7.10;99.90;;;;;;4973336;28;20045;-67
2022/11/29 08:35:19;;;;;;;499.95;61.38;;;7.10;99.90;;;;;;4957866;28;20659;-67
2022/11/29 08:37:46;;;;;;;452.02;58.13;;;7.10;99.90;;;;;;4926781;28;20125;-67
2022/11/29 08:40:14;;;;;;;472.65;62.20;;;7.20;99.90;;;;;;4975708;28;20275;-67
2022/11/29 08:42:41;;;;;;;388.73;56.08;;;7.20;99.90;;;;;;4944560;28;20108;-68
2022/11/29 08:45:08;;;;;;;472.83;61.63;;;7.30;99.90;;;;;;4969495;28;20543;-67
2022/11/29 08:47:37;;;;;;;539.03;68.13;;;7.30;99.90;;;;;;4938622;28;20042;-66
2022/11/29 08:50:10;;;;;;;389.00;52.33;;;7.30;99.90;;;;;;4973061;28;20232;-67
2022/11/29 08:55:46;;;;;;;352.20;51.25;;;7.30;99.90;;;;;;4973350;28;20065;-67
2022/11/29 08:58:14;;;;;;;326.15;49.00;;;7.40;99.90;;;;;;4986066;23;20051;-67
2022/11/29 09:00:44;;;;;;;351.58;55.30;;;7.40;99.90;;;;;;4957395;28;20047;-66
2022/11/29 09:05:56;;;;;;;347.17;46.85;;;7.40;99.90;;;;;;4953693;28;20031;-68
2022/11/29 09:08:23;;;;;;;282.20;43.35;;;7.30;99.90;;;;;;4956052;28;20051;-69
2022/11/29 09:10:50;;;;;;;332.83;48.22;;;7.30;99.90;;;;;;4957031;28;20136;-66
2022/11/29 09:13:17;;;;;;;340.67;45.63;;;7.30;99.90;;;;;;4958385;28;20042;-67
2022/11/29 09:15:43;;;;;;;317.38;44.53;;;7.20;99.90;;;;;;4954500;28;20043;-68
2022/11/29 09:18:10;;;;;;;285.85;46.38;;;7.20;99.90;;;;;;4958633;28;20051;-69
2022/11/29 09:20:37;;;;;;;325.05;45.97;;;7.20;99.90;;;;;;4947986;28;20406;-68
2022/11/29 09:23:03;;;;;;;342.95;49.30;;;7.10;99.90;;;;;;4940777;28;20046;-68
2022/11/29 09:25:30;;;;;;;261.83;55.65;;;7.20;99.90;;;;;;4954600;28;20089;-69
2022/11/29 09:28:00;;;;;;;230.02;66.05;;;7.20;99.90;;;;;;4942400;28;20042;-68
2022/11/29 09:30:30;;;;;;;276.95;66.10;;;7.10;99.90;;;;;;4954843;28;20058;-69
2022/11/29 09:33:01;;;;;;;310.23;74.55;;;7.20;99.90;;;;;;4953157;28;20043;-68
2022/11/29 09:35:28;;;;;;;294.88;71.10;;;7.20;99.90;;;;;;4955445;28;20039;-69
2022/11/29 09:37:55;;;;;;;314.33;70.22;;;7.20;99.90;;;;;;4953139;28;20073;-69
2022/11/29 09:40:36;;;;;;;261.67;64.68;;;7.20;99.90;;;;;;4955632;28;20050;-68
2022/11/29 09:43:16;;;;;;;254.68;56.80;;;7.20;99.90;;;;;;4959042;28;20047;-69
2022/11/29 09:45:46;;;;;;;248.65;64.55;;;7.10;99.90;;;;;;4937580;28;20323;-68
2022/11/29 09:48:30;;;;;;;297.65;65.47;;;7.10;99.90;;;;;;4940413;28;20559;-68
2022/11/29 09:51:16;;;;;;;289.63;63.53;;;7.20;99.90;;;;;;4951649;28;20034;-69
2022/11/29 09:53:54;;;;;;;256.58;57.08;;;7.30;99.90;;;;;;4954787;28;20501;-70
2022/11/29 09:56:29;;;;;;;261.90;53.20;;;7.30;99.90;;;;;;4950535;28;20495;-69
2022/11/29 09:59:04;;;;;;;298.48;60.00;;;7.30;99.90;;;;;;4950537;28;20539;-69
2022/11/29 10:01:39;;;;;;;325.95;58.13;;;7.40;99.90;;;;;;4937698;28;20051;-68
2022/11/29 10:04:15;;;;;;;284.98;58.08;;;7.40;99.90;;;;;;4948108;28;20445;-69
2022/11/29 10:06:53;;;;;;;352.02;63.60;;;7.40;99.90;;;;;;4954183;28;20416;-70
2022/11/29 10:09:37;;;;;;;299.83;57.25;;;7.40;99.90;;;;;;4952390;28;20046;-67
2022/11/29 10:12:25;;;;;;;339.50;67.63;;;7.30;99.90;;;;;;4951122;28;20039;-69
2022/11/29 10:14:55;;;;;;;291.25;60.90;;;7.40;99.90;;;;;;4951718;28;20300;-69
2022/11/29 10:17:35;;;;;;;324.60;66.80;;;7.40;99.90;;;;;;4949556;28;20253;-69
2022/11/29 10:20:10;;;;;;;297.20;65.57;;;7.40;99.90;;;;;;4946042;28;20046;-69
2022/11/29 10:22:40;;;;;;;300.38;64.60;;;7.50;99.90;;;;;;4959656;28;20050;-69
2022/11/29 10:25:10;;;;;;;321.02;63.42;;;7.40;99.90;;;;;;4957785;28;20394;-69
2022/11/29 10:27:39;;;;;;;254.95;60.17;;;7.50;99.90;;;;;;4951984;28;20043;-69
2022/11/29 10:30:12;;;;;;;264.83;63.53;;;7.60;99.90;;;;;;4958660;28;20043;-68
2022/11/29 10:32:41;;;;;;;261.25;63.30;;;7.60;99.90;;;;;;4949386;28;21414;-69
2022/11/29 10:35:17;;;;;;;286.13;67.75;;;7.50;99.90;;;;;;4959086;28;20060;-68
2022/11/29 10:37:44;;;;;;;288.88;63.75;;;7.50;99.90;;;;;;4954315;28;20042;-69
2022/11/29 10:40:34;;;;;;;278.45;65.07;;;7.40;99.90;;;;;;4947725;28;20074;-69
2022/11/29 10:43:01;;;;;;;283.08;64.80;;;7.50;99.90;;;;;;4955923;28;20047;-68
2022/11/29 10:45:32;;;;;;;261.20;61.45;;;7.50;99.90;;;;;;4954520;28;20047;-69
2022/11/29 10:48:38;;;;;;;325.65;63.15;;;7.50;99.90;;;;;;4955237;28;20039;-69
2022/11/29 10:51:15;;;;;;;376.55;62.50;;;7.40;99.90;;;;;;4897471;29;20132;-69
2022/11/29 10:53:44;;;;;;;365.20;58.55;;;7.30;99.90;;;;;;4891534;29;20055;-67
2022/11/29 10:56:33;;;;;;;399.65;66.53;;;7.30;99.90;;;;;;4924095;28;20043;-68
2022/11/29 10:59:04;;;;;;;475.73;72.97;;;7.30;99.90;;;;;;4929351;28;20054;-69
2022/11/29 11:01:34;;;;;;;410.50;65.63;;;7.30;99.90;;;;;;4949174;28;20492;-68
2022/11/29 11:04:03;;;;;;;508.13;76.80;;;7.30;99.90;;;;;;4958099;28;20294;-68
2022/11/29 11:06:47;;;;;;;450.48;71.38;;;7.30;99.90;;;;;;4938096;28;20050;-67
2022/11/29 11:09:31;;;;;;;551.50;79.43;;;7.30;99.90;;;;;;4962108;28;20134;-69
2022/11/29 11:12:03;;;;;;;489.48;75.50;;;7.30;99.90;;;;;;4951375;28;20031;-69
2022/11/29 11:14:39;;;;;;;526.85;80.90;;;7.30;99.90;;;;;;4949483;28;20229;-67
2022/11/29 11:17:24;;;;;;;434.40;76.30;;;7.30;99.90;;;;;;4955217;28;20133;-69
2022/11/29 11:19:56;;;;;;;;;;;7.30;99.90;;;;;;4953623;28;20424;-68
2022/11/29 11:22:24;;;;;;;396.45;68.53;;;7.40;99.90;;;;;;4957344;28;20125;-69
2022/11/29 11:24:58;;;;;;;328.33;64.85;;;7.40;99.90;;;;;;4958740;28;20290;-69
2022/11/29 11:27:38;;;;;;;334.50;67.18;;;7.30;99.90;;;;;;4951355;28;20048;-69
2022/11/29 11:30:17;;;;;;;354.85;66.45;;;7.40;99.90;;;;;;4957896;28;20058;-69
2022/11/29 11:33:07;;;;;;;365.58;67.93;;;7.40;99.90;;;;;;4945733;28;20570;-68
2022/11/29 11:35:36;;;;;;;293.02;60.58;;;7.40;99.90;;;;;;4954085;28;20302;-68
2022/11/29 11:38:02;;;;;;;399.65;68.95;;;7.40;99.90;;;;;;4959438;28;20038;-68
2022/11/29 11:40:29;;;;;;;372.05;64.60;;;7.40;99.90;;;;;;4955885;28;20066;-68
2022/11/29 11:42:59;;;;;;;297.23;62.70;;;7.30;99.90;;;;;;4955969;28;20457;-69
2022/11/29 11:45:31;;;;;;;386.98;68.13;;;7.40;99.90;;;;;;4942086;28;20183;-69
2022/11/29 11:48:03;;;;;;;558.38;88.57;;;7.50;99.90;;;;;;4953734;28;20236;-68
2022/11/29 11:50:36;;;;;;;357.27;80.65;;;7.50;99.90;;;;;;4955148;28;20126;-69
2022/11/29 11:53:22;;;;;;;419.83;83.63;;;7.60;99.90;;;;;;4957360;28;20050;-68
2022/11/29 11:56:07;;;;;;;495.92;83.47;;;7.60;99.90;;;;;;4948160;28;20126;-68
2022/11/29 11:58:43;;;;;;;410.88;79.60;;;7.50;99.90;;;;;;4955908;28;20043;-68
2022/11/29 12:01:15;;;;;;;345.00;69.50;;;7.50;99.90;;;;;;4958205;28;20049;-67
2022/11/29 12:04:04;;;;;;;266.90;61.13;;;7.50;99.90;;;;;;4957768;28;22323;-69
2022/11/29 12:06:42;;;;;;;426.92;77.32;;;7.50;99.90;;;;;;4953812;28;20039;-68
2022/11/29 12:09:24;;;;;;;549.28;92.22;;;7.50;99.90;;;;;;4959572;28;20055;-69
2022/11/29 12:12:05;;;;;;;537.92;83.10;;;7.50;99.90;;;;;;4955718;28;20054;-69
2022/11/29 12:14:56;;;;;;;368.58;65.50;;;7.50;99.90;;;;;;4955548;28;20577;-69
2022/11/29 12:17:33;;;;;;;358.02;60.50;;;7.40;99.90;;;;;;4957057;28;20051;-69
2022/11/29 12:20:20;;;;;;;514.30;79.63;;;7.40;99.90;;;;;;4963380;28;20264;-69
2022/11/29 12:22:50;;;;;;;280.00;57.25;;;7.40;99.90;;;;;;4963644;28;20054;-69
2022/11/29 12:25:32;;;;;;;211.57;50.75;;;7.40;99.90;;;;;;4961100;28;20038;-69
2022/11/29 12:27:58;;;;;;;207.13;51.25;;;7.40;99.90;;;;;;4952347;28;20500;-68
2022/11/29 12:30:25;;;;;;;209.05;48.55;;;7.40;99.90;;;;;;4956385;28;20523;-66
2022/11/29 12:33:07;;;;;;;237.18;50.88;;;7.40;99.90;;;;;;4951966;28;20038;-69
2022/11/29 12:35:53;;;;;;;292.30;59.42;;;7.40;99.90;;;;;;4957521;28;20118;-69
2022/11/29 12:38:40;;;;;;;326.55;62.60;;;7.50;99.90;;;;;;4955537;28;20234;-69
2022/11/29 12:41:25;;;;;;;279.92;56.65;;;7.50;99.90;;;;;;4961577;28;20061;-69
2022/11/29 12:44:06;;;;;;;476.77;77.40;;;7.40;99.90;;;;;;4960723;28;20053;-67
2022/11/29 12:46:34;;;;;;;462.08;74.43;;;7.40;99.90;;;;;;4958956;28;20213;-67
2022/11/29 12:49:16;;;;;;;528.00;82.93;;;7.40;99.90;;;;;;4945437;28;20243;-69
2022/11/29 12:51:56;;;;;;;319.17;73.70;;;7.40;99.90;;;;;;4959358;28;20317;-69
2022/11/29 12:54:34;;;;;;;324.35;76.78;;;7.40;99.90;;;;;;4962996;28;20563;-69
2022/11/29 12:57:06;;;;;;;453.92;92.88;;;7.40;99.90;;;;;;4929310;28;20047;-69
2022/11/29 12:59:48;;;;;;;280.23;71.60;;;7.40;99.90;;;;;;4967180;28;20116;-69
2022/11/29 13:02:53;;;;;;;290.05;68.13;;;7.40;99.90;;;;;;4962030;28;20050;-69
2022/11/29 13:05:28;;;;;;;225.50;59.90;;;7.50;99.90;;;;;;4943020;28;20097;-69
2022/11/29 13:08:17;;;;;;;185.98;55.83;;;7.50;99.90;;;;;;4954966;28;20486;-68
2022/11/29 13:11:19;;;;;;;155.50;50.58;;;7.60;99.90;;;;;;4940835;28;20035;-70
2022/11/29 13:13:57;;;;;;;151.05;47.60;;;7.60;99.90;;;;;;4954526;28;20057;-67
2022/11/29 13:17:02;;;;;;;120.95;41.53;;;7.70;99.90;;;;;;4953456;28;20047;-67
2022/11/29 13:20:00;;;;;;;144.77;51.85;;;7.70;99.90;;;;;;4955339;28;20047;-68
2022/11/29 13:22:54;;;;;;;128.30;45.22;;;7.60;99.90;;;;;;4959072;28;20039;-68
2022/11/29 13:25:38;;;;;;;147.95;50.78;;;7.60;99.90;;;;;;4955045;28;20039;-70